SWA2389 KHOU-KOKC
Flight info
| Callsign | SWA2389 |
|---|---|
| Flight time | 1h 5m |
| Altitude | 40000 |
| Route | N0450F400 STYCK8 DOLEY DCT ZEMMA TSDEL3 |
| Aircraft | B737/M-SDE2E3FGHIRWXY/LB1 |
Departure
| Time | 2026-04-08 15:14 |
|---|---|
| Airport | William P. Hobby Airport (KHOU) |
Arrival
| Time | 2026-04-08 16:20 |
|---|---|
| Airport | OKC Will Rogers World Airport (KOKC) |
| Time | Latitude | Longitude | Altitude | Speed | Heading |
|---|---|---|---|---|---|
| 2026-04-08 14:47 | 29.65264 | -95.27655 | 54 ft | 0 kts | 359° |
| 2026-04-08 15:01 | 29.65257 | -95.27655 | 54 ft | 2 kts | 359° |
| 2026-04-08 15:02 | 29.65253 | -95.27655 | 54 ft | 3 kts | 359° |
| 2026-04-08 15:02 | 29.65246 | -95.27655 | 54 ft | 2 kts | 359° |
| 2026-04-08 15:02 | 29.65228 | -95.27654 | 54 ft | 3 kts | 354° |
| 2026-04-08 15:03 | 29.65209 | -95.27650 | 54 ft | 3 kts | 348° |
| 2026-04-08 15:03 | 29.65189 | -95.27645 | 54 ft | 3 kts | 343° |
| 2026-04-08 15:03 | 29.65169 | -95.27637 | 54 ft | 3 kts | 337° |
| 2026-04-08 15:03 | 29.65164 | -95.27634 | 54 ft | 0 kts | 336° |
| 2026-04-08 15:07 | 29.65177 | -95.27647 | 54 ft | 3 kts | 297° |
| 2026-04-08 15:07 | 29.65180 | -95.27698 | 54 ft | 11 kts | 270° |
| 2026-04-08 15:08 | 29.65191 | -95.27780 | 54 ft | 4 kts | 303° |
| 2026-04-08 15:08 | 29.65203 | -95.27799 | 54 ft | 6 kts | 307° |
| 2026-04-08 15:08 | 29.65255 | -95.27868 | 54 ft | 15 kts | 311° |
| 2026-04-08 15:08 | 29.65316 | -95.27946 | 54 ft | 11 kts | 310° |
| 2026-04-08 15:09 | 29.65352 | -95.27996 | 54 ft | 7 kts | 310° |
| 2026-04-08 15:09 | 29.65397 | -95.28055 | 54 ft | 12 kts | 311° |
| 2026-04-08 15:09 | 29.65409 | -95.28110 | 54 ft | 1 kts | 249° |
| 2026-04-08 15:09 | 29.65389 | -95.28161 | 54 ft | 14 kts | 245° |
| 2026-04-08 15:10 | 29.65348 | -95.28262 | 54 ft | 12 kts | 244° |
| 2026-04-08 15:10 | 29.65302 | -95.28318 | 54 ft | 14 kts | 221° |
| 2026-04-08 15:10 | 29.65223 | -95.28424 | 54 ft | 16 kts | 257° |
| 2026-04-08 15:10 | 29.65213 | -95.28484 | 54 ft | 0 kts | 275° |
| 2026-04-08 15:11 | 29.65214 | -95.28494 | 54 ft | 5 kts | 280° |
| 2026-04-08 15:11 | 29.65216 | -95.28541 | 54 ft | 1 kts | 244° |
| 2026-04-08 15:11 | 29.65183 | -95.28558 | 54 ft | 6 kts | 174° |
| 2026-04-08 15:11 | 29.65151 | -95.28557 | 54 ft | 2 kts | 179° |
| 2026-04-08 15:12 | 29.65148 | -95.28557 | 54 ft | 0 kts | 179° |
| 2026-04-08 15:12 | 29.65125 | -95.28557 | 54 ft | 11 kts | 179° |
| 2026-04-08 15:12 | 29.65066 | -95.28519 | 54 ft | 0 kts | 134° |
| 2026-04-08 15:13 | 29.65058 | -95.28510 | 54 ft | 12 kts | 134° |
| 2026-04-08 15:13 | 29.64850 | -95.28261 | 54 ft | 76 kts | 133° |
| 2026-04-08 15:14 | 29.64344 | -95.27659 | 54 ft | 132 kts | 133° |
| 2026-04-08 15:14 | 29.63650 | -95.26823 | 407 ft | 147 kts | 133° |
| 2026-04-08 15:14 | 29.62937 | -95.25983 | 1077 ft | 147 kts | 133° |
| 2026-04-08 15:14 | 29.62178 | -95.25145 | 1666 ft | 158 kts | 135° |
| 2026-04-08 15:15 | 29.61332 | -95.24212 | 2061 ft | 180 kts | 134° |
| 2026-04-08 15:15 | 29.60533 | -95.23036 | 2526 ft | 195 kts | 112° |
| 2026-04-08 15:15 | 29.60516 | -95.21475 | 3196 ft | 202 kts | 75° |
| 2026-04-08 15:15 | 29.61385 | -95.20165 | 3944 ft | 217 kts | 38° |
| 2026-04-08 15:16 | 29.62747 | -95.19356 | 4833 ft | 224 kts | 28° |
| 2026-04-08 15:16 | 29.64199 | -95.18595 | 5450 ft | 242 kts | 29° |
| 2026-04-08 15:16 | 29.65853 | -95.17761 | 5831 ft | 275 kts | 19° |
| 2026-04-08 15:16 | 29.67832 | -95.17563 | 6187 ft | 304 kts | 355° |
| 2026-04-08 15:17 | 29.69861 | -95.18160 | 7330 ft | 295 kts | 339° |
| 2026-04-08 15:17 | 29.71691 | -95.19111 | 8644 ft | 284 kts | 332° |
| 2026-04-08 15:17 | 29.73455 | -95.20116 | 9710 ft | 282 kts | 332° |
| 2026-04-08 15:17 | 29.75222 | -95.21099 | 10673 ft | 284 kts | 332° |
| 2026-04-08 15:18 | 29.78953 | -95.23182 | 11794 ft | 316 kts | 332° |
| 2026-04-08 15:18 | 29.80989 | -95.24318 | 12220 ft | 334 kts | 333° |
| 2026-04-08 15:18 | 29.83121 | -95.25500 | 12854 ft | 344 kts | 332° |
| 2026-04-08 15:19 | 29.85295 | -95.26715 | 13669 ft | 349 kts | 332° |
| 2026-04-08 15:19 | 29.87489 | -95.27945 | 14547 ft | 353 kts | 332° |
| 2026-04-08 15:19 | 29.89713 | -95.29193 | 15434 ft | 357 kts | 332° |
| 2026-04-08 15:19 | 29.91958 | -95.30456 | 16299 ft | 361 kts | 332° |
| 2026-04-08 15:20 | 29.94236 | -95.31738 | 17128 ft | 366 kts | 332° |
| 2026-04-08 15:20 | 29.96515 | -95.33022 | 17925 ft | 370 kts | 332° |
| 2026-04-08 15:20 | 29.98847 | -95.34336 | 18708 ft | 375 kts | 331° |
| 2026-04-08 15:20 | 30.01205 | -95.35666 | 19478 ft | 379 kts | 331° |
| 2026-04-08 15:21 | 30.03587 | -95.37010 | 20234 ft | 383 kts | 331° |
| 2026-04-08 15:21 | 30.05999 | -95.38370 | 20976 ft | 387 kts | 331° |
| 2026-04-08 15:21 | 30.08428 | -95.39738 | 21681 ft | 390 kts | 331° |
| 2026-04-08 15:21 | 30.10885 | -95.41132 | 22348 ft | 394 kts | 332° |
| 2026-04-08 15:22 | 30.13365 | -95.42515 | 22995 ft | 398 kts | 332° |
| 2026-04-08 15:22 | 30.15866 | -95.43919 | 23626 ft | 401 kts | 332° |
| 2026-04-08 15:22 | 30.18357 | -95.45320 | 24232 ft | 404 kts | 332° |
| 2026-04-08 15:22 | 30.20900 | -95.46754 | 24838 ft | 407 kts | 332° |
| 2026-04-08 15:23 | 30.23459 | -95.48196 | 25435 ft | 409 kts | 331° |
| 2026-04-08 15:23 | 30.26040 | -95.49651 | 25993 ft | 412 kts | 331° |
| 2026-04-08 15:23 | 30.28627 | -95.51112 | 26520 ft | 415 kts | 331° |
| 2026-04-08 15:23 | 30.31205 | -95.52556 | 27015 ft | 418 kts | 331° |
| 2026-04-08 15:24 | 30.33829 | -95.54035 | 27499 ft | 421 kts | 331° |
| 2026-04-08 15:24 | 30.36467 | -95.55525 | 27967 ft | 423 kts | 330° |
| 2026-04-08 15:24 | 30.39127 | -95.57031 | 28416 ft | 426 kts | 330° |
| 2026-04-08 15:24 | 30.41800 | -95.58545 | 28852 ft | 429 kts | 330° |
| 2026-04-08 15:25 | 30.44487 | -95.60068 | 29269 ft | 431 kts | 330° |
| 2026-04-08 15:25 | 30.47192 | -95.61603 | 29671 ft | 434 kts | 330° |
| 2026-04-08 15:25 | 30.49907 | -95.63143 | 30052 ft | 436 kts | 330° |
| 2026-04-08 15:25 | 30.52641 | -95.64693 | 30417 ft | 439 kts | 330° |
| 2026-04-08 15:26 | 30.55401 | -95.66247 | 30767 ft | 441 kts | 331° |
| 2026-04-08 15:26 | 30.58178 | -95.67723 | 31099 ft | 444 kts | 332° |
| 2026-04-08 15:26 | 30.60994 | -95.69208 | 31533 ft | 444 kts | 332° |
| 2026-04-08 15:26 | 30.63797 | -95.70695 | 32032 ft | 441 kts | 331° |
| 2026-04-08 15:27 | 30.66588 | -95.72183 | 32539 ft | 439 kts | 331° |
| 2026-04-08 15:27 | 30.69353 | -95.73659 | 33034 ft | 436 kts | 330° |
| 2026-04-08 15:27 | 30.72078 | -95.75118 | 33475 ft | 434 kts | 330° |
| 2026-04-08 15:27 | 30.74815 | -95.76585 | 33921 ft | 432 kts | 330° |
| 2026-04-08 15:28 | 30.77545 | -95.78050 | 34352 ft | 430 kts | 330° |
| 2026-04-08 15:28 | 30.80263 | -95.79509 | 34769 ft | 429 kts | 330° |
| 2026-04-08 15:28 | 30.82969 | -95.80961 | 35174 ft | 427 kts | 330° |
| 2026-04-08 15:28 | 30.85670 | -95.82392 | 35565 ft | 425 kts | 329° |
| 2026-04-08 15:29 | 30.88354 | -95.83824 | 35945 ft | 423 kts | 329° |
| 2026-04-08 15:29 | 30.91026 | -95.85258 | 36313 ft | 421 kts | 329° |
| 2026-04-08 15:29 | 30.93683 | -95.86687 | 36671 ft | 420 kts | 329° |
| 2026-04-08 15:29 | 30.96294 | -95.88094 | 37013 ft | 418 kts | 328° |
| 2026-04-08 15:30 | 30.98927 | -95.89515 | 37349 ft | 416 kts | 328° |
| 2026-04-08 15:30 | 31.01585 | -95.90950 | 37678 ft | 415 kts | 328° |
| 2026-04-08 15:30 | 31.04170 | -95.92346 | 37902 ft | 415 kts | 328° |
| 2026-04-08 15:30 | 31.06792 | -95.93763 | 38182 ft | 414 kts | 328° |
| 2026-04-08 15:31 | 31.09411 | -95.95178 | 38485 ft | 413 kts | 328° |
| 2026-04-08 15:31 | 31.12022 | -95.96572 | 38743 ft | 414 kts | 330° |
| 2026-04-08 15:31 | 31.14724 | -95.97789 | 38999 ft | 416 kts | 333° |
| 2026-04-08 15:31 | 31.17475 | -95.98872 | 39242 ft | 417 kts | 334° |
| 2026-04-08 15:32 | 31.20236 | -95.99905 | 39492 ft | 416 kts | 334° |
| 2026-04-08 15:32 | 31.22990 | -96.00947 | 39713 ft | 416 kts | 334° |
| 2026-04-08 15:32 | 31.25738 | -96.01997 | 39930 ft | 415 kts | 334° |
| 2026-04-08 15:32 | 31.28488 | -96.03055 | 40137 ft | 415 kts | 334° |
| 2026-04-08 15:33 | 31.33994 | -96.05189 | 40209 ft | 420 kts | 334° |
| 2026-04-08 15:33 | 31.39555 | -96.07351 | 40220 ft | 420 kts | 334° |
| 2026-04-08 15:34 | 31.45069 | -96.09500 | 40225 ft | 420 kts | 334° |
| 2026-04-08 15:34 | 31.50629 | -96.11655 | 40226 ft | 423 kts | 335° |
| 2026-04-08 15:35 | 31.55314 | -96.13479 | 40226 ft | 423 kts | 335° |
| 2026-04-08 15:35 | 31.60901 | -96.15661 | 40226 ft | 423 kts | 335° |
| 2026-04-08 15:36 | 31.65537 | -96.17475 | 40227 ft | 423 kts | 335° |
| 2026-04-08 15:36 | 31.72062 | -96.20031 | 40230 ft | 422 kts | 335° |
| 2026-04-08 15:37 | 31.77634 | -96.22218 | 40230 ft | 422 kts | 335° |
| 2026-04-08 15:37 | 31.83206 | -96.24407 | 40229 ft | 422 kts | 335° |
| 2026-04-08 15:38 | 31.87832 | -96.26227 | 40228 ft | 421 kts | 335° |
| 2026-04-08 15:38 | 31.94296 | -96.28762 | 40229 ft | 421 kts | 335° |
| 2026-04-08 15:39 | 31.98950 | -96.30598 | 40229 ft | 421 kts | 335° |
| 2026-04-08 15:39 | 32.04471 | -96.32782 | 40229 ft | 421 kts | 335° |
| 2026-04-08 15:40 | 32.10030 | -96.34983 | 40229 ft | 421 kts | 335° |
| 2026-04-08 15:40 | 32.15575 | -96.37180 | 40228 ft | 420 kts | 335° |
| 2026-04-08 15:41 | 32.21189 | -96.39214 | 40226 ft | 424 kts | 339° |
| 2026-04-08 15:41 | 32.26973 | -96.40753 | 40224 ft | 426 kts | 341° |
| 2026-04-08 15:42 | 32.32726 | -96.42260 | 40222 ft | 426 kts | 341° |
| 2026-04-08 15:42 | 32.38513 | -96.43803 | 40219 ft | 426 kts | 340° |
| 2026-04-08 15:43 | 32.44301 | -96.45361 | 40218 ft | 426 kts | 341° |
| 2026-04-08 15:43 | 32.50084 | -96.46925 | 40219 ft | 426 kts | 341° |
| 2026-04-08 15:44 | 32.55877 | -96.48486 | 40219 ft | 426 kts | 341° |
| 2026-04-08 15:44 | 32.61665 | -96.50048 | 40221 ft | 426 kts | 341° |
| 2026-04-08 15:45 | 32.67423 | -96.51609 | 40223 ft | 426 kts | 341° |
| 2026-04-08 15:45 | 32.73205 | -96.53179 | 40225 ft | 426 kts | 341° |
| 2026-04-08 15:46 | 32.78997 | -96.54755 | 40226 ft | 426 kts | 341° |
| 2026-04-08 15:46 | 32.84789 | -96.56334 | 40223 ft | 427 kts | 341° |
| 2026-04-08 15:47 | 32.90549 | -96.57905 | 40215 ft | 427 kts | 341° |
| 2026-04-08 15:47 | 32.96347 | -96.59490 | 40211 ft | 428 kts | 341° |
| 2026-04-08 15:48 | 33.02157 | -96.61080 | 40204 ft | 429 kts | 341° |
| 2026-04-08 15:48 | 33.07976 | -96.62675 | 40201 ft | 429 kts | 341° |
| 2026-04-08 15:49 | 33.13801 | -96.64273 | 40201 ft | 429 kts | 341° |
| 2026-04-08 15:49 | 33.19630 | -96.65874 | 40201 ft | 429 kts | 341° |
| 2026-04-08 15:50 | 33.25449 | -96.67476 | 40201 ft | 429 kts | 341° |
| 2026-04-08 15:50 | 33.31279 | -96.69082 | 40201 ft | 430 kts | 341° |
| 2026-04-08 15:51 | 33.37114 | -96.70692 | 40201 ft | 430 kts | 341° |
| 2026-04-08 15:51 | 33.42917 | -96.72295 | 40201 ft | 430 kts | 341° |
| 2026-04-08 15:52 | 33.48765 | -96.73913 | 40206 ft | 431 kts | 341° |
| 2026-04-08 15:52 | 33.54613 | -96.75533 | 40206 ft | 431 kts | 342° |
| 2026-04-08 15:53 | 33.60458 | -96.77155 | 40206 ft | 431 kts | 342° |
| 2026-04-08 15:53 | 33.66313 | -96.78782 | 40208 ft | 432 kts | 342° |
| 2026-04-08 15:54 | 33.72073 | -96.80384 | 40208 ft | 432 kts | 342° |
| 2026-04-08 15:54 | 33.77927 | -96.82016 | 40181 ft | 433 kts | 342° |
| 2026-04-08 15:55 | 33.80881 | -96.82839 | 39800 ft | 435 kts | 342° |
| 2026-04-08 15:55 | 33.83830 | -96.83662 | 39173 ft | 435 kts | 342° |
| 2026-04-08 15:55 | 33.86779 | -96.84486 | 38477 ft | 435 kts | 342° |
| 2026-04-08 15:55 | 33.89737 | -96.85313 | 37768 ft | 436 kts | 342° |
| 2026-04-08 15:56 | 33.92659 | -96.86130 | 37056 ft | 437 kts | 342° |
| 2026-04-08 15:56 | 33.95628 | -96.86961 | 36323 ft | 438 kts | 342° |
| 2026-04-08 15:56 | 33.98604 | -96.87795 | 35557 ft | 439 kts | 343° |
| 2026-04-08 15:56 | 34.01591 | -96.88632 | 34775 ft | 441 kts | 343° |
| 2026-04-08 15:57 | 34.04583 | -96.89471 | 33974 ft | 442 kts | 343° |
| 2026-04-08 15:57 | 34.07590 | -96.90313 | 33150 ft | 444 kts | 343° |
| 2026-04-08 15:57 | 34.10598 | -96.91153 | 32415 ft | 444 kts | 343° |
| 2026-04-08 15:57 | 34.13599 | -96.91995 | 31795 ft | 440 kts | 343° |
| 2026-04-08 15:58 | 34.16567 | -96.92830 | 31187 ft | 436 kts | 343° |
| 2026-04-08 15:58 | 34.19502 | -96.93657 | 30590 ft | 432 kts | 343° |
| 2026-04-08 15:58 | 34.22418 | -96.94480 | 29998 ft | 428 kts | 344° |
| 2026-04-08 15:58 | 34.25308 | -96.95297 | 29399 ft | 424 kts | 344° |
| 2026-04-08 15:59 | 34.28177 | -96.96108 | 28800 ft | 419 kts | 344° |
| 2026-04-08 15:59 | 34.30968 | -96.96897 | 28213 ft | 415 kts | 344° |
| 2026-04-08 15:59 | 34.33771 | -96.97690 | 27623 ft | 411 kts | 344° |
| 2026-04-08 15:59 | 34.36524 | -96.98533 | 27033 ft | 406 kts | 341° |
| 2026-04-08 16:00 | 34.39177 | -96.99667 | 26448 ft | 401 kts | 335° |
| 2026-04-08 16:00 | 34.41694 | -97.01074 | 25860 ft | 396 kts | 332° |
| 2026-04-08 16:00 | 34.44128 | -97.02606 | 25278 ft | 392 kts | 330° |
| 2026-04-08 16:00 | 34.46527 | -97.04158 | 24711 ft | 389 kts | 330° |
| 2026-04-08 16:01 | 34.48911 | -97.05694 | 24143 ft | 385 kts | 331° |
| 2026-04-08 16:01 | 34.51279 | -97.07200 | 23576 ft | 383 kts | 331° |
| 2026-04-08 16:01 | 34.53625 | -97.08694 | 23012 ft | 380 kts | 331° |
| 2026-04-08 16:01 | 34.55958 | -97.10185 | 22449 ft | 377 kts | 331° |
| 2026-04-08 16:02 | 34.58277 | -97.11671 | 21887 ft | 375 kts | 331° |
| 2026-04-08 16:02 | 34.60576 | -97.13145 | 21328 ft | 373 kts | 331° |
| 2026-04-08 16:02 | 34.62868 | -97.14617 | 20771 ft | 371 kts | 331° |
| 2026-04-08 16:02 | 34.65114 | -97.16061 | 20226 ft | 369 kts | 331° |
| 2026-04-08 16:03 | 34.67377 | -97.17515 | 19675 ft | 367 kts | 331° |
| 2026-04-08 16:03 | 34.69627 | -97.18964 | 19126 ft | 365 kts | 330° |
| 2026-04-08 16:03 | 34.71878 | -97.20412 | 18572 ft | 364 kts | 330° |
| 2026-04-08 16:03 | 34.74108 | -97.21849 | 18007 ft | 363 kts | 330° |
| 2026-04-08 16:04 | 34.76345 | -97.23288 | 17311 ft | 366 kts | 330° |
| 2026-04-08 16:04 | 34.78603 | -97.24749 | 16659 ft | 368 kts | 330° |
| 2026-04-08 16:04 | 34.80797 | -97.26315 | 16112 ft | 365 kts | 327° |
| 2026-04-08 16:04 | 34.82937 | -97.27985 | 15571 ft | 363 kts | 326° |
| 2026-04-08 16:05 | 34.85069 | -97.29612 | 15148 ft | 357 kts | 327° |
| 2026-04-08 16:05 | 34.87134 | -97.31162 | 15101 ft | 341 kts | 327° |
| 2026-04-08 16:05 | 34.89109 | -97.32643 | 15026 ft | 326 kts | 327° |
| 2026-04-08 16:05 | 34.91012 | -97.34079 | 14733 ft | 321 kts | 327° |
| 2026-04-08 16:06 | 34.92905 | -97.35514 | 14344 ft | 320 kts | 327° |
| 2026-04-08 16:06 | 34.94767 | -97.36930 | 13960 ft | 317 kts | 327° |
| 2026-04-08 16:06 | 34.96631 | -97.38352 | 13579 ft | 315 kts | 326° |
| 2026-04-08 16:06 | 34.98486 | -97.39767 | 13200 ft | 314 kts | 326° |
| 2026-04-08 16:07 | 35.00332 | -97.41176 | 12826 ft | 312 kts | 326° |
| 2026-04-08 16:07 | 35.02170 | -97.42580 | 12452 ft | 312 kts | 326° |
| 2026-04-08 16:07 | 35.04006 | -97.43983 | 12080 ft | 310 kts | 326° |
| 2026-04-08 16:07 | 35.05834 | -97.45364 | 11708 ft | 308 kts | 328° |
| 2026-04-08 16:08 | 35.07801 | -97.46416 | 11335 ft | 311 kts | 341° |
| 2026-04-08 16:08 | 35.09915 | -97.46946 | 10957 ft | 310 kts | 352° |
| 2026-04-08 16:08 | 35.12066 | -97.47074 | 10582 ft | 308 kts | 358° |
| 2026-04-08 16:08 | 35.14200 | -97.47129 | 10212 ft | 304 kts | 356° |
| 2026-04-08 16:09 | 35.16280 | -97.47245 | 9852 ft | 301 kts | 356° |
| 2026-04-08 16:09 | 35.18361 | -97.47365 | 9493 ft | 298 kts | 356° |
| 2026-04-08 16:09 | 35.20447 | -97.47499 | 9134 ft | 295 kts | 355° |
| 2026-04-08 16:09 | 35.22484 | -97.47631 | 8783 ft | 292 kts | 356° |
| 2026-04-08 16:10 | 35.24476 | -97.47759 | 8441 ft | 290 kts | 356° |
| 2026-04-08 16:10 | 35.26480 | -97.47888 | 8124 ft | 286 kts | 356° |
| 2026-04-08 16:10 | 35.28441 | -97.48014 | 8040 ft | 278 kts | 356° |
| 2026-04-08 16:10 | 35.30333 | -97.48136 | 7991 ft | 266 kts | 355° |
| 2026-04-08 16:11 | 35.32133 | -97.48252 | 7976 ft | 254 kts | 355° |
| 2026-04-08 16:11 | 35.33881 | -97.48365 | 7976 ft | 248 kts | 355° |
| 2026-04-08 16:11 | 35.35591 | -97.48475 | 7966 ft | 245 kts | 355° |
| 2026-04-08 16:11 | 35.37274 | -97.48584 | 7755 ft | 242 kts | 355° |
| 2026-04-08 16:12 | 35.38967 | -97.48693 | 7385 ft | 246 kts | 355° |
| 2026-04-08 16:12 | 35.40684 | -97.48732 | 7091 ft | 246 kts | 359° |
| 2026-04-08 16:12 | 35.42394 | -97.48716 | 6814 ft | 245 kts | 359° |
| 2026-04-08 16:12 | 35.44103 | -97.48697 | 6531 ft | 245 kts | 359° |
| 2026-04-08 16:13 | 35.45805 | -97.48679 | 6255 ft | 244 kts | 359° |
| 2026-04-08 16:13 | 35.47484 | -97.48689 | 5982 ft | 244 kts | 358° |
| 2026-04-08 16:13 | 35.49177 | -97.48710 | 5708 ft | 243 kts | 359° |
| 2026-04-08 16:13 | 35.50867 | -97.48730 | 5434 ft | 242 kts | 359° |
| 2026-04-08 16:14 | 35.52557 | -97.48757 | 5142 ft | 241 kts | 355° |
| 2026-04-08 16:14 | 35.54154 | -97.49272 | 4842 ft | 237 kts | 327° |
| 2026-04-08 16:14 | 35.55276 | -97.50645 | 4580 ft | 223 kts | 293° |
| 2026-04-08 16:14 | 35.55733 | -97.52402 | 4334 ft | 212 kts | 272° |
| 2026-04-08 16:15 | 35.55636 | -97.54147 | 4066 ft | 201 kts | 249° |
| 2026-04-08 16:15 | 35.55258 | -97.55798 | 3984 ft | 200 kts | 253° |
| 2026-04-08 16:15 | 35.55085 | -97.57417 | 3922 ft | 186 kts | 255° |
| 2026-04-08 16:15 | 35.54623 | -97.58790 | 3763 ft | 167 kts | 220° |
| 2026-04-08 16:16 | 35.53621 | -97.59185 | 3661 ft | 149 kts | 175° |
| 2026-04-08 16:16 | 35.52635 | -97.58920 | 3539 ft | 144 kts | 175° |
| 2026-04-08 16:16 | 35.51637 | -97.58874 | 3458 ft | 143 kts | 184° |
| 2026-04-08 16:16 | 35.50664 | -97.58891 | 3275 ft | 137 kts | 184° |
| 2026-04-08 16:17 | 35.48842 | -97.58902 | 2923 ft | 127 kts | 183° |
| 2026-04-08 16:17 | 35.47961 | -97.58902 | 2750 ft | 126 kts | 182° |
| 2026-04-08 16:17 | 35.47081 | -97.58902 | 2586 ft | 127 kts | 181° |
| 2026-04-08 16:18 | 35.46197 | -97.58901 | 2418 ft | 127 kts | 182° |
| 2026-04-08 16:18 | 35.45323 | -97.58900 | 2252 ft | 127 kts | 182° |
| 2026-04-08 16:18 | 35.44440 | -97.58899 | 2082 ft | 126 kts | 181° |
| 2026-04-08 16:18 | 35.43559 | -97.58899 | 1909 ft | 126 kts | 181° |
| 2026-04-08 16:19 | 35.42679 | -97.58907 | 1742 ft | 126 kts | 182° |
| 2026-04-08 16:19 | 35.41799 | -97.58896 | 1565 ft | 126 kts | 180° |
| 2026-04-08 16:19 | 35.40923 | -97.58896 | 1401 ft | 126 kts | 181° |
| 2026-04-08 16:19 | 35.40059 | -97.58897 | 1306 ft | 117 kts | 177° |
| 2026-04-08 16:20 | 35.39387 | -97.58892 | 1304 ft | 74 kts | 179° |
| 2026-04-08 16:20 | 35.39008 | -97.58893 | 1304 ft | 41 kts | 180° |
| 2026-04-08 16:20 | 35.38794 | -97.58900 | 1304 ft | 11 kts | 191° |
| 2026-04-08 16:20 | 35.38765 | -97.58960 | 1304 ft | 7 kts | 266° |
| 2026-04-08 16:21 | 35.38765 | -97.59019 | 1304 ft | 7 kts | 270° |
| 2026-04-08 16:21 | 35.38790 | -97.59060 | 1304 ft | 7 kts | 341° |
| 2026-04-08 16:21 | 35.38846 | -97.59064 | 1304 ft | 12 kts | 0° |
| 2026-04-08 16:21 | 35.38929 | -97.59063 | 1304 ft | 12 kts | 0° |
| 2026-04-08 16:22 | 35.39008 | -97.59063 | 1304 ft | 11 kts | 360° |
| 2026-04-08 16:22 | 35.39085 | -97.59063 | 1304 ft | 11 kts | 360° |
| 2026-04-08 16:22 | 35.39158 | -97.59064 | 1304 ft | 10 kts | 360° |
| 2026-04-08 16:22 | 35.39227 | -97.59071 | 1304 ft | 10 kts | 324° |
| 2026-04-08 16:23 | 35.39238 | -97.59149 | 1304 ft | 9 kts | 270° |
| 2026-04-08 16:23 | 35.39238 | -97.59227 | 1304 ft | 9 kts | 270° |
| 2026-04-08 16:23 | 35.39238 | -97.59314 | 1304 ft | 13 kts | 270° |
| 2026-04-08 16:23 | 35.39237 | -97.59425 | 1304 ft | 13 kts | 269° |
| 2026-04-08 16:24 | 35.39238 | -97.59532 | 1304 ft | 12 kts | 282° |
| 2026-04-08 16:24 | 35.39295 | -97.59558 | 1304 ft | 9 kts | 356° |
| 2026-04-08 16:24 | 35.39312 | -97.59622 | 1304 ft | 7 kts | 275° |
| 2026-04-08 16:24 | 35.39352 | -97.59641 | 1304 ft | 7 kts | 357° |
| 2026-04-08 16:25 | 35.39399 | -97.59641 | 1304 ft | 7 kts | 1° |
| 2026-04-08 16:25 | 35.39443 | -97.59640 | 1304 ft | 0 kts | 360° |